Time;durP1;ratioP1;P1;durP2;ratioP2;P2;SDS_P1;SDS_P2;PMS_P1;PMS_P2;Temp;Humidity;BMP_temperature;BMP_pressure;BME280_temperature;BME280_humidity;BME280_pressure;Samples;Min_cycle;Max_cycle;Signal;HPM_P1;HPM_P2
2022/07/17 00:02:14;;;;;;;;;;;21.00;66.80;;;;;;5035073;28;1283;-67
2022/07/17 00:04:43;;;;;;;;;;;21.00;66.80;;;;;;5034302;28;879;-66
2022/07/17 00:07:09;;;;;;;;;;;21.00;66.90;;;;;;5034891;28;819;-67
2022/07/17 00:09:35;;;;;;;;;;;21.00;66.80;;;;;;5035038;28;878;-66
2022/07/17 00:12:00;;;;;;;;;;;21.00;66.90;;;;;;5034323;28;1280;-67
2022/07/17 00:14:26;;;;;;;;;;;21.00;66.90;;;;;;5033963;28;796;-67
2022/07/17 00:16:53;;;;;;;;;;;21.00;66.90;;;;;;5033196;28;1894;-66
2022/07/17 00:19:18;;;;;;;;;;;21.00;66.90;;;;;;5034643;28;1162;-66
2022/07/17 00:21:44;;;;;;;;;;;21.00;67.00;;;;;;5034373;28;1274;-67
2022/07/17 00:24:10;;;;;;;;;;;21.00;67.00;;;;;;5033909;28;927;-66
2022/07/17 00:26:35;;;;;;;;;;;21.00;67.00;;;;;;5034355;28;1111;-66
2022/07/17 00:29:04;;;;;;;;;;;21.00;67.00;;;;;;5034356;28;1026;-66
2022/07/17 00:31:29;;;;;;;;;;;21.00;67.70;;;;;;5034342;28;1294;-65
2022/07/17 00:33:55;;;;;;;;;;;21.00;67.00;;;;;;5033608;28;1010;-66
2022/07/17 00:36:20;;;;;;;;;;;21.00;67.00;;;;;;5034110;28;1898;-67
2022/07/17 00:38:45;;;;;;;;;;;21.00;67.00;;;;;;5034209;28;950;-66
2022/07/17 00:41:13;;;;;;;;;;;21.00;67.10;;;;;;5034132;28;907;-67
2022/07/17 00:43:38;;;;;;;;;;;21.00;67.10;;;;;;5032282;28;1190;-66
2022/07/17 00:46:04;;;;;;;;;;;21.00;67.10;;;;;;5033665;28;1013;-66
2022/07/17 00:48:30;;;;;;;;;;;21.00;67.10;;;;;;5033901;28;907;-66
2022/07/17 00:50:55;;;;;;;;;;;21.00;67.10;;;;;;5032648;28;895;-67
2022/07/17 00:53:21;;;;;;;;;;;21.00;67.10;;;;;;5033443;28;1189;-66
2022/07/17 00:55:50;;;;;;;;;;;21.00;67.10;;;;;;5032019;28;1199;-66
2022/07/17 00:58:17;;;;;;;;;;;21.00;67.20;;;;;;5033708;28;1963;-67
2022/07/17 01:00:43;;;;;;;;;;;21.00;67.20;;;;;;5034038;28;870;-66
2022/07/17 01:03:09;;;;;;;;;;;21.00;67.20;;;;;;5032323;28;1329;-66
2022/07/17 01:05:34;;;;;;;;;;;21.00;67.20;;;;;;5032385;28;799;-66
2022/07/17 01:08:00;;;;;;;;;;;21.00;67.20;;;;;;5033835;28;942;-66
2022/07/17 01:10:25;;;;;;;;;;;21.00;67.20;;;;;;5032490;28;1002;-66
2022/07/17 01:12:51;;;;;;;;;;;21.00;67.20;;;;;;5033056;28;1203;-66
2022/07/17 01:15:16;;;;;;;;;;;21.00;67.20;;;;;;5033131;28;1110;-67
2022/07/17 01:17:41;;;;;;;;;;;21.00;67.30;;;;;;5033278;28;1906;-67
2022/07/17 01:20:08;;;;;;;;;;;21.00;67.30;;;;;;5033443;28;1182;-66
2022/07/17 01:22:47;;;;;;;;;;;21.00;67.30;;;;;;5031983;28;1214;-67
2022/07/17 01:25:14;;;;;;;;;;;21.00;67.30;;;;;;5032570;28;1210;-66
2022/07/17 01:27:39;;;;;;;;;;;21.00;67.40;;;;;;5033146;28;832;-66
2022/07/17 01:30:05;;;;;;;;;;;21.00;67.30;;;;;;5033433;28;955;-66
2022/07/17 01:32:33;;;;;;;;;;;21.00;67.40;;;;;;5033280;28;1213;-66
2022/07/17 01:34:59;;;;;;;;;;;21.00;67.40;;;;;;5030849;28;914;-67
2022/07/17 01:37:24;;;;;;;;;;;21.00;67.40;;;;;;5033356;28;1963;-66
2022/07/17 01:39:53;;;;;;;;;;;21.00;67.40;;;;;;5033212;28;946;-66
2022/07/17 01:42:18;;;;;;;;;;;21.00;67.40;;;;;;5032795;28;1210;-67
2022/07/17 01:44:44;;;;;;;;;;;21.00;67.40;;;;;;5033051;28;835;-66
2022/07/17 01:47:09;;;;;;;;;;;21.00;67.40;;;;;;5032547;28;820;-65
2022/07/17 01:49:35;;;;;;;;;;;21.00;67.50;;;;;;5031855;28;1403;-66
2022/07/17 01:52:01;;;;;;;;;;;21.00;67.50;;;;;;5032783;28;1292;-67
2022/07/17 01:54:27;;;;;;;;;;;21.00;67.50;;;;;;5032504;28;839;-66
2022/07/17 01:56:52;;;;;;;;;;;21.00;67.50;;;;;;5032497;28;1906;-67
2022/07/17 01:59:18;;;;;;;;;;;21.00;67.50;;;;;;5032634;28;1045;-66
2022/07/17 02:01:43;;;;;;;;;;;21.00;67.50;;;;;;5032866;28;1292;-66
2022/07/17 02:04:08;;;;;;;;;;;21.00;67.50;;;;;;5032250;28;998;-66
2022/07/17 02:06:34;;;;;;;;;;;21.00;67.50;;;;;;5031541;28;1065;-65
2022/07/17 02:08:59;;;;;;;;;;;21.00;67.50;;;;;;5032600;28;839;-66
2022/07/17 02:11:25;;;;;;;;;;;21.00;67.60;;;;;;5031601;28;1197;-66
2022/07/17 02:13:50;;;;;;;;;;;21.00;67.60;;;;;;5032086;28;816;-65
2022/07/17 02:16:16;;;;;;;;;;;21.00;67.60;;;;;;5032100;28;1898;-66
2022/07/17 02:18:41;;;;;;;;;;;21.00;67.60;;;;;;5032221;28;1112;-67
2022/07/17 02:21:06;;;;;;;;;;;21.00;67.60;;;;;;5032708;28;1069;-65
2022/07/17 02:23:32;;;;;;;;;;;21.00;67.60;;;;;;5032705;28;1198;-66
2022/07/17 02:25:58;;;;;;;;;;;21.00;67.70;;;;;;5031760;28;1163;-66
2022/07/17 02:28:23;;;;;;;;;;;21.00;67.70;;;;;;5032527;28;812;-65
2022/07/17 02:30:48;;;;;;;;;;;21.00;67.70;;;;;;5032485;28;815;-66
2022/07/17 02:33:14;;;;;;;;;;;21.00;67.60;;;;;;5032037;28;1199;-66
2022/07/17 02:35:39;;;;;;;;;;;21.00;67.70;;;;;;5032416;28;1001;-65
2022/07/17 02:38:05;;;;;;;;;;;21.00;67.70;;;;;;5032382;28;1906;-65
2022/07/17 02:40:30;;;;;;;;;;;21.00;67.70;;;;;;5032165;28;972;-66
2022/07/17 02:42:56;;;;;;;;;;;21.00;67.70;;;;;;5032422;28;1278;-65
2022/07/17 02:45:24;;;;;;;;;;;21.00;67.70;;;;;;5032092;28;1010;-66
2022/07/17 02:47:50;;;;;;;;;;;21.00;67.70;;;;;;5032487;28;784;-66
2022/07/17 02:50:15;;;;;;;;;;;21.00;67.70;;;;;;5032604;28;839;-66
2022/07/17 02:52:43;;;;;;;;;;;21.00;67.70;;;;;;5032172;28;1306;-65
2022/07/17 02:55:09;;;;;;;;;;;21.00;67.70;;;;;;5031942;28;920;-66
2022/07/17 02:57:34;;;;;;;;;;;21.00;67.80;;;;;;5032412;28;1966;-65
2022/07/17 03:00:00;;;;;;;;;;;21.00;67.70;;;;;;5031816;28;887;-65
2022/07/17 03:02:25;;;;;;;;;;;21.00;67.80;;;;;;5032094;28;1229;-65
2022/07/17 03:04:51;;;;;;;;;;;21.00;67.80;;;;;;5031958;28;788;-65
2022/07/17 03:07:16;;;;;;;;;;;21.00;67.80;;;;;;5030952;28;797;-66
2022/07/17 03:09:42;;;;;;;;;;;21.00;67.80;;;;;;5032171;28;820;-66
2022/07/17 03:12:07;;;;;;;;;;;21.00;67.80;;;;;;5031885;28;1211;-67
2022/07/17 03:14:32;;;;;;;;;;;21.00;67.80;;;;;;5031242;28;788;-66
2022/07/17 03:16:58;;;;;;;;;;;21.00;67.90;;;;;;5032389;28;1969;-66
2022/07/17 03:19:23;;;;;;;;;;;21.00;67.90;;;;;;5032269;28;1095;-65
2022/07/17 03:21:49;;;;;;;;;;;21.00;67.90;;;;;;5031925;28;1217;-65
2022/07/17 03:24:14;;;;;;;;;;;21.00;67.90;;;;;;5031255;28;853;-66
2022/07/17 03:26:40;;;;;;;;;;;21.00;67.90;;;;;;5031921;28;1245;-66
2022/07/17 03:29:05;;;;;;;;;;;21.00;67.90;;;;;;5035077;28;903;-66
2022/07/17 03:31:30;;;;;;;;;;;21.00;67.90;;;;;;5035511;28;1196;-66
2022/07/17 03:33:56;;;;;;;;;;;21.00;67.90;;;;;;5034704;28;1030;-67
2022/07/17 03:36:21;;;;;;;;;;;21.00;67.90;;;;;;5035359;28;2007;-66
2022/07/17 03:38:47;;;;;;;;;;;21.00;67.90;;;;;;5035122;28;828;-66
2022/07/17 03:41:12;;;;;;;;;;;21.00;67.90;;;;;;5035365;28;1062;-67
2022/07/17 03:43:38;;;;;;;;;;;21.00;68.00;;;;;;5034667;28;1148;-66
2022/07/17 03:46:03;;;;;;;;;;;21.00;68.00;;;;;;5034948;28;797;-66
2022/07/17 03:48:29;;;;;;;;;;;21.00;68.00;;;;;;5035614;28;1050;-66
2022/07/17 03:50:54;;;;;;;;;;;21.00;68.00;;;;;;5035282;28;1046;-66
2022/07/17 03:53:19;;;;;;;;;;;21.00;68.00;;;;;;5034892;28;1232;-66
2022/07/17 03:55:45;;;;;;;;;;;21.00;68.00;;;;;;5034317;28;817;-66
2022/07/17 03:58:10;;;;;;;;;;;21.00;68.80;;;;;;5034914;28;1902;-65
2022/07/17 04:00:36;;;;;;;;;;;21.00;68.00;;;;;;5034890;28;1079;-66
2022/07/17 04:03:01;;;;;;;;;;;21.00;68.00;;;;;;5034835;28;1259;-66
2022/07/17 04:05:26;;;;;;;;;;;21.00;68.00;;;;;;5034420;28;857;-67
2022/07/17 04:07:52;;;;;;;;;;;21.00;68.00;;;;;;5034727;28;927;-66
2022/07/17 04:10:17;;;;;;;;;;;21.00;68.10;;;;;;5034583;28;907;-66
2022/07/17 04:12:43;;;;;;;;;;;21.00;68.10;;;;;;5034916;28;1293;-66
2022/07/17 04:15:08;;;;;;;;;;;21.00;68.10;;;;;;5034137;28;1134;-66
2022/07/17 04:17:34;;;;;;;;;;;21.00;68.10;;;;;;5034437;28;1890;-66
2022/07/17 04:19:59;;;;;;;;;;;21.00;68.20;;;;;;5034652;28;1150;-66
2022/07/17 04:22:25;;;;;;;;;;;21.00;68.10;;;;;;5033346;28;1220;-65
2022/07/17 04:24:50;;;;;;;;;;;21.00;68.10;;;;;;5033900;28;977;-65
2022/07/17 04:27:16;;;;;;;;;;;21.00;68.10;;;;;;5033269;28;1286;-65
2022/07/17 04:29:41;;;;;;;;;;;21.00;68.10;;;;;;5034614;28;891;-66
2022/07/17 04:32:07;;;;;;;;;;;21.00;68.20;;;;;;5033868;28;1293;-66
2022/07/17 04:34:33;;;;;;;;;;;21.00;68.20;;;;;;5033760;28;800;-66
2022/07/17 04:36:59;;;;;;;;;;;21.00;68.20;;;;;;5034267;28;1902;-66
2022/07/17 04:39:24;;;;;;;;;;;21.00;68.20;;;;;;5033120;28;800;-65
2022/07/17 04:41:50;;;;;;;;;;;21.00;68.20;;;;;;5033631;28;1228;-66
2022/07/17 04:44:15;;;;;;;;;;;21.00;68.20;;;;;;5032423;28;966;-66
2022/07/17 04:46:41;;;;;;;;;;;21.00;68.20;;;;;;5033716;28;875;-67
2022/07/17 04:49:06;;;;;;;;;;;21.00;68.20;;;;;;5033904;28;946;-66
2022/07/17 04:51:32;;;;;;;;;;;21.00;68.20;;;;;;5033643;28;1294;-67
2022/07/17 04:53:57;;;;;;;;;;;21.00;68.30;;;;;;5031346;28;994;-65
2022/07/17 04:56:23;;;;;;;;;;;21.00;68.30;;;;;;5033082;28;1963;-67
2022/07/17 04:58:48;;;;;;;;;;;21.00;68.20;;;;;;5033229;28;829;-65
2022/07/17 05:01:13;;;;;;;;;;;21.00;68.30;;;;;;5033451;28;947;-65
2022/07/17 05:03:39;;;;;;;;;;;21.00;69.10;;;;;;5033133;28;1621;-65
2022/07/17 05:06:05;;;;;;;;;;;21.00;68.30;;;;;;5033225;28;773;-65
2022/07/17 05:08:31;;;;;;;;;;;21.00;68.30;;;;;;5032534;28;863;-66
2022/07/17 05:10:56;;;;;;;;;;;21.00;68.30;;;;;;5033009;28;1013;-66
2022/07/17 05:13:22;;;;;;;;;;;21.00;68.30;;;;;;5032895;28;1314;-66
2022/07/17 05:15:49;;;;;;;;;;;21.00;68.30;;;;;;5032911;28;1122;-65
2022/07/17 05:18:14;;;;;;;;;;;21.00;68.30;;;;;;5032750;28;1914;-66
2022/07/17 05:20:40;;;;;;;;;;;21.00;68.30;;;;;;5031288;28;1084;-66
2022/07/17 05:23:05;;;;;;;;;;;21.00;68.30;;;;;;5032179;28;1200;-66
2022/07/17 05:25:31;;;;;;;;;;;21.00;65.30;;;;;;5032222;28;1123;-66
2022/07/17 05:27:56;;;;;;;;;;;21.00;61.10;;;;;;5032905;28;923;-66
2022/07/17 05:30:22;;;;;;;;;;;21.00;60.00;;;;;;5031543;28;769;-66
2022/07/17 05:32:47;;;;;;;;;;;20.90;61.80;;;;;;5032020;28;1331;-66
2022/07/17 05:35:13;;;;;;;;;;;20.90;60.40;;;;;;5032163;28;1037;-66
2022/07/17 05:37:38;;;;;;;;;;;20.90;61.40;;;;;;5023158;28;1961;-68
2022/07/17 05:40:04;;;;;;;;;;;20.90;61.20;;;;;;5022827;28;1704;-68
2022/07/17 05:42:29;;;;;;;;;;;20.90;63.20;;;;;;5030311;28;1226;-68
2022/07/17 05:44:55;;;;;;;;;;;20.90;62.30;;;;;;5009782;28;866;-67
2022/07/17 05:47:20;;;;;;;;;;;20.90;62.40;;;;;;5011916;28;781;-69
2022/07/17 05:49:46;;;;;;;;;;;20.90;62.30;;;;;;5011370;28;888;-66
2022/07/17 05:52:11;;;;;;;;;;;20.90;62.30;;;;;;5011891;28;1332;-66
2022/07/17 05:54:37;;;;;;;;;;;20.90;61.90;;;;;;5018586;28;1706;-69
2022/07/17 05:57:02;;;;;;;;;;;20.90;62.00;;;;;;5031593;28;1899;-69
2022/07/17 05:59:27;;;;;;;;;;;20.80;62.10;;;;;;5029817;28;2178;-68
2022/07/17 06:01:53;;;;;;;;;;;20.80;62.30;;;;;;5029174;28;1380;-69
2022/07/17 06:04:18;;;;;;;;;;;20.90;62.90;;;;;;5022571;28;1115;-65
2022/07/17 06:06:44;;;;;;;;;;;20.90;62.00;;;;;;5026995;28;883;-68
2022/07/17 06:09:09;;;;;;;;;;;20.90;62.30;;;;;;5031253;28;970;-67
2022/07/17 06:11:35;;;;;;;;;;;20.80;62.20;;;;;;5031671;28;1351;-67
2022/07/17 06:14:00;;;;;;;;;;;20.80;61.90;;;;;;5031149;28;788;-68
2022/07/17 06:16:26;;;;;;;;;;;20.90;62.00;;;;;;5031769;28;1969;-68
2022/07/17 06:18:51;;;;;;;;;;;20.80;62.20;;;;;;5031489;28;1157;-67
2022/07/17 06:21:16;;;;;;;;;;;20.90;62.10;;;;;;5031209;28;1057;-68
2022/07/17 06:23:42;;;;;;;;;;;20.80;62.00;;;;;;5030671;28;1225;-68
2022/07/17 06:26:07;;;;;;;;;;;20.90;62.80;;;;;;5031241;28;1178;-67
2022/07/17 06:28:33;;;;;;;;;;;20.90;62.30;;;;;;5030311;28;765;-67
2022/07/17 06:30:58;;;;;;;;;;;20.90;62.40;;;;;;5030501;28;876;-66
2022/07/17 06:33:24;;;;;;;;;;;20.90;62.10;;;;;;5031144;28;1281;-66
2022/07/17 06:35:49;;;;;;;;;;;20.80;62.20;;;;;;5030604;28;784;-65
2022/07/17 06:38:14;;;;;;;;;;;20.90;61.90;;;;;;5031154;28;1969;-65
2022/07/17 06:40:40;;;;;;;;;;;20.80;61.90;;;;;;5031450;28;887;-66
2022/07/17 06:43:06;;;;;;;;;;;20.90;61.60;;;;;;5031285;28;1149;-65
2022/07/17 06:45:31;;;;;;;;;;;20.90;61.70;;;;;;5030865;28;804;-65
2022/07/17 06:47:57;;;;;;;;;;;20.90;61.60;;;;;;5031214;28;1259;-65
2022/07/17 06:50:22;;;;;;;;;;;20.90;61.60;;;;;;5031010;28;796;-66
2022/07/17 06:52:48;;;;;;;;;;;20.90;61.80;;;;;;5031062;28;1225;-67
2022/07/17 06:55:13;;;;;;;;;;;20.80;61.50;;;;;;5027621;28;860;-67
2022/07/17 06:57:39;;;;;;;;;;;20.90;61.80;;;;;;5030714;28;1906;-66
2022/07/17 07:00:04;;;;;;;;;;;20.90;61.50;;;;;;5029150;28;2154;-66
2022/07/17 07:02:30;;;;;;;;;;;20.90;61.40;;;;;;5031561;28;1307;-66
2022/07/17 07:04:55;;;;;;;;;;;20.90;61.20;;;;;;5033768;28;1093;-66
2022/07/17 07:07:21;;;;;;;;;;;20.80;61.20;;;;;;5033111;28;1767;-66
2022/07/17 07:09:46;;;;;;;;;;;20.90;61.30;;;;;;5027176;28;2120;-67
2022/07/17 07:12:12;;;;;;;;;;;20.80;61.30;;;;;;5031535;28;1304;-67
2022/07/17 07:14:37;;;;;;;;;;;20.90;60.80;;;;;;5032091;28;1409;-67
2022/07/17 07:17:02;;;;;;;;;;;20.80;61.10;;;;;;5034468;28;1957;-67
2022/07/17 07:19:28;;;;;;;;;;;20.90;61.40;;;;;;5034724;28;1366;-66
2022/07/17 07:21:53;;;;;;;;;;;20.90;61.80;;;;;;5034232;28;1384;-67
2022/07/17 07:24:19;;;;;;;;;;;20.90;62.00;;;;;;5033649;28;1219;-66
2022/07/17 07:26:44;;;;;;;;;;;20.90;62.30;;;;;;5035191;28;1500;-67
2022/07/17 07:29:10;;;;;;;;;;;21.00;62.60;;;;;;5035617;28;994;-67
2022/07/17 07:31:35;;;;;;;;;;;21.00;62.70;;;;;;5035539;28;1222;-67
2022/07/17 07:34:01;;;;;;;;;;;21.00;62.80;;;;;;5034937;28;943;-66
2022/07/17 07:36:27;;;;;;;;;;;21.00;63.00;;;;;;5035253;28;1018;-65
2022/07/17 07:38:52;;;;;;;;;;;21.00;63.10;;;;;;5035608;28;811;-67
2022/07/17 07:41:18;;;;;;;;;;;21.00;63.40;;;;;;5035608;28;1014;-67
2022/07/17 07:43:43;;;;;;;;;;;21.00;63.70;;;;;;5056907;22;2704;-73
2022/07/17 07:46:09;;;;;;;;;;;21.00;63.90;;;;;;5006376;28;2012;-73
2022/07/17 07:48:34;;;;;;;;;;;21.00;64.20;;;;;;5013323;28;1573;-73
2022/07/17 07:51:00;;;;;;;;;;;21.10;64.60;;;;;;5005197;28;1394;-73
2022/07/17 07:53:25;;;;;;;;;;;21.10;64.90;;;;;;5015652;28;1088;-73
2022/07/17 07:55:50;;;;;;;;;;;21.10;65.20;;;;;;5015362;28;1574;-73
2022/07/17 07:58:16;;;;;;;;;;;21.10;65.50;;;;;;5015568;28;1973;-73
2022/07/17 08:00:43;;;;;;;;;;;21.10;65.70;;;;;;4998201;28;873;-73
2022/07/17 08:03:08;;;;;;;;;;;21.10;66.00;;;;;;5011543;28;1772;-71
2022/07/17 08:05:33;;;;;;;;;;;21.10;66.80;;;;;;4996730;28;1588;-71
2022/07/17 08:07:59;;;;;;;;;;;21.20;68.10;;;;;;4997969;28;863;-71
2022/07/17 08:10:24;;;;;;;;;;;21.20;68.00;;;;;;4997596;28;847;-69
2022/07/17 08:12:50;;;;;;;;;;;21.20;67.60;;;;;;5015218;28;1033;-75
2022/07/17 08:15:16;;;;;;;;;;;21.20;67.50;;;;;;4992938;28;1319;-72
2022/07/17 08:17:42;;;;;;;;;;;21.20;67.50;;;;;;4995995;28;1903;-72
2022/07/17 08:20:07;;;;;;;;;;;21.20;67.60;;;;;;4997301;28;1391;-72
2022/07/17 08:22:33;;;;;;;;;;;21.20;67.60;;;;;;5014694;28;907;-72
2022/07/17 08:24:58;;;;;;;;;;;21.20;67.70;;;;;;5015402;28;1295;-72
2022/07/17 08:27:24;;;;;;;;;;;21.20;67.70;;;;;;5017304;28;946;-72
2022/07/17 08:29:49;;;;;;;;;;;21.20;67.70;;;;;;5034651;28;811;-72
2022/07/17 08:32:15;;;;;;;;;;;21.20;68.00;;;;;;5034778;28;821;-73
2022/07/17 08:34:40;;;;;;;;;;;21.20;68.00;;;;;;5016215;28;1385;-72
2022/07/17 08:37:06;;;;;;;;;;;21.20;68.10;;;;;;4995951;28;2278;-72
2022/07/17 08:39:31;;;;;;;;;;;21.30;68.20;;;;;;5021123;28;1293;-72
2022/07/17 08:41:57;;;;;;;;;;;21.30;68.20;;;;;;5010358;28;1425;-72
2022/07/17 08:44:22;;;;;;;;;;;21.30;68.30;;;;;;5008183;28;1564;-72
2022/07/17 08:46:48;;;;;;;;;;;21.30;68.40;;;;;;5013128;28;1412;-72
2022/07/17 08:49:13;;;;;;;;;;;21.30;68.40;;;;;;5029019;28;1556;-72
2022/07/17 08:51:38;;;;;;;;;;;21.30;68.40;;;;;;5016204;28;1082;-72
2022/07/17 08:54:04;;;;;;;;;;;21.30;68.40;;;;;;5033793;28;1294;-72
2022/07/17 08:56:29;;;;;;;;;;;21.30;68.50;;;;;;5016484;28;1957;-72
2022/07/17 08:58:58;;;;;;;;;;;21.30;68.60;;;;;;5016160;28;851;-71
2022/07/17 09:01:24;;;;;;;;;;;21.30;68.60;;;;;;5016876;28;922;-72
2022/07/17 09:04:00;;;;;;;;;;;21.30;68.80;;;;;;4983755;28;2322;-71
2022/07/17 09:06:26;;;;;;;;;;;21.30;69.90;;;;;;4988625;28;1644;-72
2022/07/17 09:09:02;;;;;;;;;;;21.30;70.00;;;;;;5016373;28;1788;-72
2022/07/17 09:11:29;;;;;;;;;;;21.40;70.30;;;;;;5016568;28;867;-72
2022/07/17 09:13:54;;;;;;;;;;;21.40;70.20;;;;;;5015991;28;1195;-72
2022/07/17 09:16:19;;;;;;;;;;;21.40;70.00;;;;;;5005259;28;1417;-72
2022/07/17 09:18:55;;;;;;;;;;;21.40;69.80;;;;;;5014014;28;1887;-72
2022/07/17 09:21:21;;;;;;;;;;;21.40;69.80;;;;;;4980550;28;1267;-71
2022/07/17 09:23:56;;;;;;;;;;;21.40;69.80;;;;;;4996364;28;1695;-72
2022/07/17 09:26:22;;;;;;;;;;;21.40;70.00;;;;;;5008147;28;1054;-72
2022/07/17 09:28:47;;;;;;;;;;;21.40;70.10;;;;;;5033556;28;907;-72
2022/07/17 09:31:14;;;;;;;;;;;21.40;70.50;;;;;;5033852;28;840;-72
2022/07/17 09:33:40;;;;;;;;;;;21.40;70.30;;;;;;5015860;28;1532;-72
2022/07/17 09:36:09;;;;;;;;;;;21.40;70.10;;;;;;4999727;28;1268;-72
2022/07/17 09:38:36;;;;;;;;;;;21.40;70.10;;;;;;5015926;28;1906;-71
2022/07/17 09:41:11;;;;;;;;;;;21.40;70.20;;;;;;5015912;28;768;-72
2022/07/17 09:43:37;;;;;;;;;;;21.40;70.30;;;;;;5016377;28;1268;-72
2022/07/17 09:46:03;;;;;;;;;;;21.40;70.30;;;;;;5015723;28;1009;-71
2022/07/17 09:48:28;;;;;;;;;;;21.40;70.70;;;;;;5033533;28;1025;-72
2022/07/17 09:50:54;;;;;;;;;;;21.40;70.70;;;;;;5033367;28;756;-71
2022/07/17 09:53:19;;;;;;;;;;;21.40;70.70;;;;;;5033350;28;867;-71
2022/07/17 09:55:45;;;;;;;;;;;21.40;70.70;;;;;;4998861;28;1220;-71
2022/07/17 09:58:10;;;;;;;;;;;21.40;70.70;;;;;;5015422;28;1962;-72
2022/07/17 10:00:35;;;;;;;;;;;21.50;70.70;;;;;;5015532;28;875;-71
2022/07/17 10:03:01;;;;;;;;;;;21.40;70.60;;;;;;5015581;28;820;-72
2022/07/17 10:05:26;;;;;;;;;;;21.40;70.60;;;;;;5032538;28;1198;-72
2022/07/17 10:07:52;;;;;;;;;;;21.40;70.70;;;;;;5015153;28;858;-72
2022/07/17 10:10:17;;;;;;;;;;;21.50;70.70;;;;;;5033025;28;835;-71
2022/07/17 10:12:43;;;;;;;;;;;21.50;70.70;;;;;;5032855;28;844;-73
2022/07/17 10:15:09;;;;;;;;;;;21.50;70.80;;;;;;5031077;28;1207;-73
2022/07/17 10:17:35;;;;;;;;;;;21.50;70.70;;;;;;5012154;28;2061;-72
2022/07/17 10:20:00;;;;;;;;;;;21.40;70.40;;;;;;5008666;28;1433;-72
2022/07/17 10:22:26;;;;;;;;;;;21.40;70.40;;;;;;5002880;28;1663;-72
2022/07/17 10:24:52;;;;;;;;;;;21.40;70.30;;;;;;5014725;28;1472;-72
2022/07/17 10:27:27;;;;;;;;;;;21.40;70.50;;;;;;4993459;28;872;-72
2022/07/17 10:29:59;;;;;;;;;;;21.50;70.60;;;;;;4976197;28;789;-72
2022/07/17 10:32:25;;;;;;;;;;;21.50;70.60;;;;;;4993547;28;896;-72
2022/07/17 10:34:57;;;;;;;;;;;21.40;70.60;;;;;;4992951;28;1200;-72
2022/07/17 10:37:23;;;;;;;;;;;21.50;70.70;;;;;;4995763;28;1882;-72
2022/07/17 10:40:04;;;;;;;;;;;21.50;70.80;;;;;;4963725;28;1271;-72
2022/07/17 10:42:42;;;;;;;;;;;21.50;70.90;;;;;;4997235;28;863;-72
2022/07/17 10:45:14;;;;;;;;;;;21.50;71.00;;;;;;4996860;28;1186;-72
2022/07/17 10:48:00;;;;;;;;;;;21.50;71.30;;;;;;4980082;28;865;-72
2022/07/17 10:50:30;;;;;;;;;;;21.50;71.10;;;;;;4978678;28;1329;-72
2022/07/17 10:53:17;;;;;;;;;;;21.50;71.00;;;;;;4987839;28;2332;-71
2022/07/17 10:55:43;;;;;;;;;;;21.50;71.00;;;;;;5015891;28;1937;-72
2022/07/17 10:58:28;;;;;;;;;;;21.50;71.10;;;;;;5028233;28;1906;-70
2022/07/17 11:00:57;;;;;;;;;;;21.50;71.00;;;;;;5018837;28;826;-70
2022/07/17 11:03:22;;;;;;;;;;;21.50;72.30;;;;;;5018768;28;843;-71
2022/07/17 11:05:48;;;;;;;;;;;21.50;72.80;;;;;;5036044;28;1180;-71
2022/07/17 11:08:14;;;;;;;;;;;21.60;72.90;;;;;;5036406;28;1010;-72
2022/07/17 11:10:39;;;;;;;;;;;21.60;72.80;;;;;;5036275;28;839;-70
2022/07/17 11:13:13;;;;;;;;;;;21.60;72.80;;;;;;5018514;28;813;-69
2022/07/17 11:15:39;;;;;;;;;;;21.60;72.80;;;;;;5030766;28;1414;-69
2022/07/17 11:18:09;;;;;;;;;;;21.60;72.80;;;;;;5014803;28;2263;-69
2022/07/17 11:20:34;;;;;;;;;;;21.60;72.80;;;;;;4998583;28;1560;-69
2022/07/17 11:23:00;;;;;;;;;;;21.70;72.90;;;;;;5027983;28;1521;-69
2022/07/17 11:25:25;;;;;;;;;;;21.60;72.50;;;;;;5023564;28;1538;-69
2022/07/17 11:27:51;;;;;;;;;;;21.60;72.30;;;;;;5006801;28;976;-70
2022/07/17 11:30:19;;;;;;;;;;;21.60;72.30;;;;;;5016254;28;911;-69
2022/07/17 11:32:44;;;;;;;;;;;21.60;72.20;;;;;;5024390;28;1406;-72
2022/07/17 11:35:16;;;;;;;;;;;21.60;72.40;;;;;;5029863;28;1301;-70
2022/07/17 11:37:42;;;;;;;;;;;21.60;72.40;;;;;;5035706;28;1906;-70
2022/07/17 11:40:08;;;;;;;;;;;21.60;72.50;;;;;;5035646;28;815;-72
2022/07/17 11:42:34;;;;;;;;;;;21.60;72.50;;;;;;5035612;28;855;-72
2022/07/17 11:44:59;;;;;;;;;;;21.50;72.40;;;;;;5017455;28;1237;-71
2022/07/17 11:47:26;;;;;;;;;;;21.50;72.40;;;;;;5017990;28;942;-71
2022/07/17 11:49:51;;;;;;;;;;;21.50;72.40;;;;;;5017362;28;874;-71
2022/07/17 11:52:18;;;;;;;;;;;21.50;72.50;;;;;;5017908;28;855;-71
2022/07/17 11:54:46;;;;;;;;;;;21.50;72.70;;;;;;5017955;28;1298;-71
2022/07/17 11:57:12;;;;;;;;;;;21.60;72.80;;;;;;5035602;28;1954;-71
2022/07/17 11:59:37;;;;;;;;;;;21.50;72.70;;;;;;5035588;28;825;-71
2022/07/17 12:02:13;;;;;;;;;;;21.60;72.80;;;;;;4997039;28;1866;-71
2022/07/17 12:04:51;;;;;;;;;;;21.50;73.00;;;;;;5002042;28;1565;-71
2022/07/17 12:07:16;;;;;;;;;;;21.60;72.30;;;;;;4997791;28;864;-71
2022/07/17 12:09:42;;;;;;;;;;;21.50;71.40;;;;;;4997745;28;1313;-71
2022/07/17 12:12:17;;;;;;;;;;;21.50;70.40;;;;;;5015227;28;1088;-71
2022/07/17 12:14:52;;;;;;;;;;;21.50;69.90;;;;;;5013921;28;1221;-71
2022/07/17 12:17:18;;;;;;;;;;;21.50;69.40;;;;;;4981851;28;1887;-71
2022/07/17 12:19:43;;;;;;;;;;;21.40;69.20;;;;;;5014592;28;1037;-70
2022/07/17 12:22:08;;;;;;;;;;;21.40;69.00;;;;;;4997482;28;1241;-71
2022/07/17 12:24:38;;;;;;;;;;;21.40;68.10;;;;;;4997212;28;1206;-71
2022/07/17 12:27:04;;;;;;;;;;;21.40;68.40;;;;;;5033017;28;1188;-71
2022/07/17 12:29:30;;;;;;;;;;;21.40;66.50;;;;;;5017085;28;1086;-71
2022/07/17 12:32:05;;;;;;;;;;;21.40;67.20;;;;;;5007257;28;1868;-71
2022/07/17 12:34:30;;;;;;;;;;;21.40;67.50;;;;;;5013785;28;1268;-71
2022/07/17 12:36:55;;;;;;;;;;;21.40;67.30;;;;;;5014261;28;1965;-72
2022/07/17 12:39:21;;;;;;;;;;;21.40;66.00;;;;;;5014377;28;1296;-71
2022/07/17 12:41:46;;;;;;;;;;;21.30;63.90;;;;;;5014846;28;1245;-72
2022/07/17 12:44:12;;;;;;;;;;;21.30;65.50;;;;;;5013824;28;1272;-72
2022/07/17 12:46:37;;;;;;;;;;;21.30;65.30;;;;;;5014162;28;1244;-72
2022/07/17 12:49:03;;;;;;;;;;;21.30;63.40;;;;;;5014119;28;1265;-71
2022/07/17 12:51:30;;;;;;;;;;;21.30;63.80;;;;;;5010973;28;1342;-69
2022/07/17 12:53:55;;;;;;;;;;;21.30;63.40;;;;;;4994122;28;1644;-67
2022/07/17 12:56:20;;;;;;;;;;;21.30;64.20;;;;;;4993054;28;835;-70
2022/07/17 12:58:46;;;;;;;;;;;21.30;64.80;;;;;;5011945;23;2307;-70
2022/07/17 13:01:11;;;;;;;;;;;21.30;62.50;;;;;;5008289;28;1898;-70
2022/07/17 13:03:37;;;;;;;;;;;21.30;61.80;;;;;;5024335;28;1732;-70
2022/07/17 13:06:02;;;;;;;;;;;21.30;62.00;;;;;;5024479;28;1294;-71
2022/07/17 13:08:28;;;;;;;;;;;21.30;61.60;;;;;;5033801;28;871;-71
2022/07/17 13:10:54;;;;;;;;;;;21.30;61.00;;;;;;5015887;28;1256;-71
2022/07/17 13:13:19;;;;;;;;;;;21.30;62.70;;;;;;5022448;28;2221;-70
2022/07/17 13:15:45;;;;;;;;;;;21.30;63.00;;;;;;5012442;28;1373;-70
2022/07/17 13:18:10;;;;;;;;;;;21.30;63.00;;;;;;5016696;28;1914;-71
2022/07/17 13:20:35;;;;;;;;;;;21.30;63.50;;;;;;5028383;28;1030;-70
2022/07/17 13:23:02;;;;;;;;;;;21.30;63.80;;;;;;5033254;28;945;-71
2022/07/17 13:25:27;;;;;;;;;;;21.30;63.20;;;;;;5030538;28;1355;-68
2022/07/17 13:27:53;;;;;;;;;;;21.30;63.00;;;;;;5024279;28;1169;-70
2022/07/17 13:30:18;;;;;;;;;;;21.30;62.10;;;;;;5021629;28;1291;-66
2022/07/17 13:32:44;;;;;;;;;;;21.30;60.80;;;;;;5012841;28;958;-70
2022/07/17 13:35:09;;;;;;;;;;;21.30;61.00;;;;;;5010264;28;1295;-70
2022/07/17 13:37:34;;;;;;;;;;;21.30;60.40;;;;;;5011534;28;1910;-70
2022/07/17 13:40:00;;;;;;;;;;;21.30;61.50;;;;;;5013661;28;918;-67
2022/07/17 13:42:25;;;;;;;;;;;21.30;60.20;;;;;;5013391;28;800;-69
2022/07/17 13:44:51;;;;;;;;;;;21.30;60.00;;;;;;5013142;28;1299;-67
2022/07/17 13:47:16;;;;;;;;;;;21.30;60.80;;;;;;5027610;28;1706;-67
2022/07/17 13:49:42;;;;;;;;;;;21.30;59.90;;;;;;5033302;28;764;-67
2022/07/17 13:52:07;;;;;;;;;;;21.30;58.90;;;;;;5030837;28;895;-66
2022/07/17 13:54:33;;;;;;;;;;;21.30;59.50;;;;;;5023514;28;2210;-67
2022/07/17 13:56:59;;;;;;;;;;;21.30;60.70;;;;;;5025738;28;1956;-67
2022/07/17 13:59:25;;;;;;;;;;;21.30;59.80;;;;;;5030154;28;1248;-67
2022/07/17 14:01:51;;;;;;;;;;;21.30;59.70;;;;;;5021275;28;1721;-70
2022/07/17 14:04:16;;;;;;;;;;;21.30;59.00;;;;;;5030920;28;2153;-69
2022/07/17 14:06:42;;;;;;;;;;;21.30;60.20;;;;;;5028387;28;1446;-70
2022/07/17 14:09:07;;;;;;;;;;;21.30;61.20;;;;;;5033119;28;792;-72
2022/07/17 14:11:34;;;;;;;;;;;21.30;59.80;;;;;;5031524;28;1446;-70
2022/07/17 14:14:00;;;;;;;;;;;21.30;59.40;;;;;;5032241;28;1142;-69
2022/07/17 14:16:25;;;;;;;;;;;21.30;58.30;;;;;;5020634;28;1149;-69
2022/07/17 14:19:00;;;;;;;;;;;21.30;57.10;;;;;;5015842;28;1971;-70
2022/07/17 14:21:33;;;;;;;;;;;21.30;56.10;;;;;;5011085;28;805;-69
2022/07/17 14:23:59;;;;;;;;;;;21.30;56.90;;;;;;5010476;28;1303;-70
2022/07/17 14:26:25;;;;;;;;;;;21.30;55.60;;;;;;5023450;28;1491;-70
2022/07/17 14:28:50;;;;;;;;;;;21.30;55.60;;;;;;5030732;28;1010;-69